Las Heras, Argentina
Current Conditions -  °F | °C
As of 11:00 PM on Friday 31 Oct 2014 (Local Time) from SAME Reporting Station
Clear Clear  
Wind Chill: 61°   Ceiling: Unl
Heat Index: 61°   Visibility: 6mi
Dew Point: 27°   Wind: 3mph
Humidity: 27%   Direction: 180°S
Pressure: 30.09"   Gusts: NA
Location:  32.85°S, 68.82°W
Report Text: SAME 010200Z 18003KT CAVOK 16/M03 Q1019
Loading
Personal Weather Stations






























Interactive Weather Map New forecast layout! Learn more

10-Day Weather Forecast

Advertisements
Track Severe Weather on mobile